• Join FlightAware (Why Join?)
  • Login
  • US Flag 
02:52AM EDT


 

Airport Tracker/Info


-or-


 

Live Flight TrackerFlight Track Log ✈ UAL4234 ✈ 20-Apr-2013 ✈ KIAH - KRDU

Flight Track Log - Related Links

Times and Time Zones

All times are in EDT time to prevent confusion due to time zone crossing. See the UAL4234 flight status page for this flight to view local times or setup timezone preferences in your user account.

Time Position Orientation Groundspeed Altitude Reporting Facility
EDT Latitude Longitude Course Direction KTS MPH feet Rate Location/Type
04:43PM 29.9639 -95.3433 97° East 149 171 600  Level Houston Center
04:44PM 29.9408 -95.2892 116° Southeast 186 214 2,500 2,040 Climbing Houston Center
04:45PM 29.9264 -95.2103 102° East 248 285 5,100 2,520 Climbing Houston Center
04:46PM 29.9098 -94.7835 95° East  Level FlightAware Approximate
04:46PM 29.9203 -95.1219 95° East 275 316 7,600  Level Houston Center
04:47PM 29.8976 -94.6450 97° East  Level FlightAware Approximate
04:47PM 29.9136 -95.0286 95° East 293 337 10,100  Level Houston Center
04:48PM 29.8824 -94.5070 97° East  Level FlightAware Approximate
04:48PM 29.9064 -94.9308 95° East 317 365 11,900  Level Houston Center
04:49PM 29.8992 -94.8311 95° East 333 383 13,200 1,320 Climbing Houston Center
04:50PM 29.8900 -94.6869 94° East 367 422 14,800 1,380 Climbing Houston Center
04:51PM 29.8806 -94.5611 95° East 386 444 16,100 1,200 Climbing Houston Center
04:52PM 29.8708 -94.4303 95° East 403 464 17,400 1,320 Climbing Houston Center
04:53PM 29.8608 -94.2972 95° East 412 474 18,900 1,560 Climbing Houston Center
04:54PM 29.8561 -94.1469 92° East 415 478 20,700 1,620 Climbing Houston Center
04:55PM 29.8553 -94.0147 90° East 414 476 22,300 1,500 Climbing Houston Center
04:56PM 29.8719 -93.8814 82° East 422 486 23,900 1,200 Climbing Houston Center
04:57PM 29.8853 -93.7458 83° East 427 491 24,900 1,020 Climbing Houston Center
04:58PM 29.8994 -93.6053 83° East 441 507 26,100 960 Climbing Houston Center
04:59PM 29.9136 -93.4631 83° East 451 519 27,000 960 Climbing Houston Center
05:00PM 29.9311 -93.2869 83° East 465 535 28,100 960 Climbing Houston Center
05:01PM 29.9497 -93.1433 81° East 460 529 29,000 420 Climbing Houston Center
05:02PM 29.9761 -92.9967 78° East 467 537 29,000 240 Level Houston Center
05:03PM 30.0042 -92.8433 78° East 484 557 29,500 1,200 Climbing Houston Center
05:04PM 30.0311 -92.6922 78° East 486 559 31,500 1,980 Climbing Houston Center
05:05PM 30.0611 -92.5253 78° East 454 522 33,600 1,560 Climbing Houston Center
05:06PM 30.0864 -92.3878 78° East 442 509 34,800 660 Climbing Houston Center
05:07PM 30.1097 -92.2522 79° East 435 501 35,000 60 Climbing Houston Center
05:08PM 30.1339 -92.1067 79° East 453 521 35,000  Level Houston Center
05:09PM 30.1611 -91.9539 78° East 477 549 35,000  Level Houston Center
05:11PM 30.1897 -91.7967 78° East 494 568 35,000  Level Houston Center
05:12PM 30.2192 -91.6072 80° East 510 587 35,000 180 Level Houston Center
05:13PM 30.2481 -91.4447 78° East 516 594 35,400 780 Climbing Houston Center
05:14PM 30.2747 -91.2872 79° East 501 577 36,700 720 Climbing Houston Center
05:15PM 30.2997 -91.1300 80° East 492 566 37,000 120 Climbing Houston Center
05:16PM 30.3253 -90.9744 79° East 498 573 37,000  Level Houston Center
05:17PM 30.3581 -90.7806 79° East 509 586 37,000  Level Houston Center
05:18PM 30.3825 -90.6181 80° East 512 589 37,000  Level Houston Center
05:19PM 30.4094 -90.4550 79° East 514 592 37,000  Level Houston Center
05:20PM 30.4358 -90.2914 79° East 516 594 37,000  Level Houston Center
05:21PM 30.4611 -90.1269 80° East 517 595 37,000  Level Houston Center
05:22PM 30.4867 -89.9628 80° East 515 593 37,000  Level Houston Center
05:23PM 30.5128 -89.7956 80° East 515 593 37,000  Level Houston Center
05:24PM 30.5400 -89.6269 79° East 520 598 37,000  Level Houston Center
05:25PM 30.5639 -89.4622 80° East 516 594 37,000  Level Houston Center
05:26PM 30.5931 -89.2647 80° East 517 595 37,000  Level Houston Center
05:27PM 30.6172 -89.0967 80° East 526 605 37,000  Level Houston Center
05:28PM 30.6403 -88.9375 80° East 519 597 37,000  Level Houston Center
05:29PM 30.6650 -88.7725 80° East 521 600 37,000  Level Houston Center
05:30PM 30.6881 -88.6078 81° East 521 600 37,000  Level Houston Center
05:31PM 30.7131 -88.4347 80° East 521 600 37,000  Level Houston Center
05:32PM 30.7950 -88.2656 61° Northeast 503 579 37,000  Level Houston Center
05:33PM 30.8867 -88.1431 49° Northeast 502 578 37,000  Level Houston Center
05:34PM 30.9800 -88.0203 48° Northeast 506 582 37,000  Level Houston Center
05:35PM 31.0722 -87.8978 49° Northeast 503 579 37,000  Level Houston Center
05:36PM 31.1475 -87.7586 58° Northeast 510 587 37,000  Level Houston Center
05:37PM 31.2181 -87.5992 63° Northeast 512 589 37,000  Level Houston Center
05:38PM 31.2836 -87.4511 63° Northeast 515 593 37,000  Level Houston Center
05:39PM 31.3478 -87.3036 63° Northeast 512 589 37,000  Level Houston Center
05:40PM 31.4136 -87.1547 63° Northeast 515 593 37,000  Level Houston Center
05:41PM 31.4908 -86.9756 63° Northeast 514 592 37,000  Level Houston Center
05:42PM 31.5553 -86.8258 63° Northeast 516 594 37,000  Level Houston Center
05:44PM 31.6211 -86.6711 63° Northeast 515 593 37,000  Level Houston Center
05:45PM 31.6906 -86.5111 63° Northeast 504 580 37,000  Level Atlanta Center
05:46PM 31.7542 -86.3614 63° Northeast 504 580 37,000  Level Atlanta Center
05:47PM 31.8172 -86.2092 64° Northeast 504 580 37,000  Level Atlanta Center
05:48PM 31.8825 -86.0592 63° Northeast 504 580 37,000  Level Atlanta Center
05:49PM 31.9475 -85.9114 63° Northeast 504 580 37,000  Level Atlanta Center
05:50PM 31.9972 -85.7922 64° Northeast 504 580 37,000  Level Atlanta Center
05:51PM 32.0683 -85.6197 64° Northeast 510 587 37,000  Level Atlanta Center
05:52PM 32.1308 -85.4664 64° Northeast 510 587 37,000  Level Atlanta Center
05:53PM 32.1931 -85.3150 64° Northeast 510 587 37,000  Level Atlanta Center
05:54PM 32.2592 -85.1614 63° Northeast 510 587 37,000  Level Atlanta Center
05:55PM 32.3211 -85.0072 65° Northeast 510 587 37,000  Level Atlanta Center
05:56PM 32.3869 -84.8506 64° Northeast 516 594 37,000  Level Atlanta Center
05:57PM 32.4483 -84.7033 64° Northeast 510 587 37,000  Level Atlanta Center
05:58PM 32.5117 -84.5414 65° Northeast 516 594 37,000  Level Atlanta Center
05:59PM 32.5769 -84.3864 63° Northeast 521 600 37,000  Level Atlanta Center
06:00PM 32.6397 -84.2286 65° Northeast 521 600 37,000  Level Atlanta Center
06:01PM 32.7025 -84.0708 65° Northeast 521 600 37,000  Level Atlanta Center
06:02PM 32.7672 -83.9128 64° Northeast 521 600 37,000 -360 Level Atlanta Center
06:03PM 32.8294 -83.7519 65° Northeast 521 600 36,300 -900 Descending Atlanta Center
06:04PM 32.8917 -83.5961 65° Northeast 521 600 35,300 -660 Descending Atlanta Center
06:05PM 32.9536 -83.4372 65° Northeast 521 600 35,000 -180 Descending Atlanta Center
06:06PM 33.0156 -83.2883 64° Northeast 515 593 35,000  Level Atlanta Center
06:07PM 33.0750 -83.1267 66° East 515 593 35,000 -60 Level Atlanta Center
06:08PM 33.1383 -82.9647 65° Northeast 529 609 34,900 -600 Descending Atlanta Center
06:09PM 33.1972 -82.8075 66° East 524 603 33,900 -660 Descending Atlanta Center
06:11PM 33.3286 -82.4625 65° Northeast 520 598 33,000 -300 Descending Jacksonville Center
06:12PM 33.3906 -82.3006 65° Northeast 525 604 33,000  Level Jacksonville Center
06:13PM 33.4522 -82.1383 65° Northeast 525 604 33,000  Level Jacksonville Center
06:14PM 33.5139 -81.9783 65° Northeast 525 604 33,000  Level Jacksonville Center
06:15PM 33.5878 -81.8406 57° Northeast 525 604 33,000  Level Jacksonville Center
06:16PM 33.6825 -81.6994 51° Northeast 533 613 33,000  Level Jacksonville Center
06:17PM 33.7792 -81.5608 50° Northeast 545 627 33,000  Level Jacksonville Center
06:18PM 33.8778 -81.4167 50° Northeast 545 627 33,000  Level Jacksonville Center
06:19PM 33.9764 -81.2747 50° Northeast 545 627 33,000  Level Jacksonville Center
06:20PM 34.0744 -81.1300 51° Northeast 552 635 33,000  Level Jacksonville Center
06:21PM 34.1706 -80.9875 51° Northeast 552 635 33,000  Level Jacksonville Center
06:22PM 34.2683 -80.8397 51° Northeast 552 635 33,000 -1,260 Level Jacksonville Center
06:23PM 34.3681 -80.6939 50° Northeast 545 627 30,500 -3,120 Descending Jacksonville Center
06:24PM 34.4717 -80.5378 51° Northeast 551 634 26,800 -3,360 Descending Jacksonville Center
06:25PM 34.5628 -80.4017 51° Northeast 545 627 23,800 -1,500 Descending Jacksonville Center
06:26PM 34.6944 -80.1969 52° Northeast 492 566 23,000 -360 Descending Washington Center
06:27PM 34.7786 -80.0675 52° Northeast 492 566 23,000  Level Washington Center
06:28PM 34.8872 -79.9519 41° Northeast 507 583 23,000  Level Washington Center
06:29PM 34.9872 -79.8408 42° Northeast 502 578 23,000  Level Washington Center
06:30PM 35.0914 -79.7244 42° Northeast 491 565 23,000 -1,260 Level Washington Center
06:31PM 35.1892 -79.6153 42° Northeast 480 552 20,500 -2,520 Descending Washington Center
06:32PM 35.2425 -79.5747 32° Northeast 461 531 19,200 -2,700 Descending Washington Center
06:32PM 35.2939 -79.5364 31° Northeast 465 535 17,800 -3,300 Descending Washington Center
06:33PM 35.3644 -79.4914 27° Northeast 425 489 15,600 -3,240 Descending Washington Center
06:33PM 35.3858 -79.4722 36° Northeast 434 499 14,600 -1,800 Descending Washington Center
06:34PM 35.4583 -79.4222 29° Northeast 374 430 13,800 -1,140 Descending Washington Center
06:34PM 35.4839 -79.4031 31° Northeast 382 440 13,500 -1,800 Descending Washington Center
06:35PM 35.5275 -79.3514 44° Northeast 313 360 12,000 -2,100 Descending Washington Center
06:35PM 35.5406 -79.3292 54° Northeast 333 383 11,400 -2,220 Descending Washington Center
06:36PM 35.5800 -79.2669 52° Northeast 306 352 9,800 -2,400 Descending Washington Center
06:36PM 35.5978 -79.2372 54° Northeast 310 357 9,000 -2,100 Descending Washington Center
06:37PM 35.6286 -79.1850 54° Northeast 295 339 7,700 -2,100 Descending Washington Center
06:37PM 35.6439 -79.1575 56° Northeast 299 344 6,900 -2,040 Descending Washington Center
06:38PM 35.6725 -79.1128 52° Northeast 265 305 5,700 -1,500 Descending Washington Center
06:38PM 35.6789 -79.1003 58° Northeast 273 314 5,400 -1,680 Descending Washington Center
06:39PM 35.7164 -79.0381 53° Northeast 245 282 4,000 -1,620 Descending Washington Center
06:39PM 35.7250 -79.0281 43° Northeast 255 293 3,800 -1,140 Descending Washington Center
06:40PM 35.7558 -78.9731 55° Northeast 237 273 2,900 -1,020 Descending Washington Center
06:40PM 35.7622 -78.9631 52° Northeast 243 280 2,800 -900 Descending Washington Center
06:41PM 35.7906 -78.9158 54° Northeast 216 249 2,000 -1,140 Descending Washington Center